createdAt,value
2022-10-09T00:07:53.167Z,99010
2022-10-09T00:19:53.167Z,99020
2022-10-09T00:31:53.330Z,99000
2022-10-09T00:43:53.232Z,99000
2022-10-09T00:55:53.430Z,99000
2022-10-09T01:07:53.316Z,98990
2022-10-09T01:19:53.433Z,98990
2022-10-09T01:31:53.466Z,98990
2022-10-09T01:43:53.239Z,98980
2022-10-09T01:55:53.237Z,98970
2022-10-09T02:07:53.306Z,98950
2022-10-09T02:19:53.284Z,98940
2022-10-09T02:31:53.232Z,98950
2022-10-09T02:43:53.267Z,98940
2022-10-09T02:55:53.179Z,98930
2022-10-09T03:07:53.258Z,98930
2022-10-09T03:19:53.163Z,98940
2022-10-09T03:31:53.630Z,98930
2022-10-09T03:43:53.163Z,98930
2022-10-09T03:55:53.176Z,98920
2022-10-09T04:07:53.177Z,98910
2022-10-09T04:19:53.175Z,98920
2022-10-09T04:31:53.251Z,98910
2022-10-09T04:43:53.182Z,98900
2022-10-09T04:55:53.184Z,98890
2022-10-09T05:07:53.188Z,98890
2022-10-09T05:19:53.225Z,98890
2022-10-09T05:31:53.272Z,98890
2022-10-09T05:43:53.168Z,98890
2022-10-09T05:55:54.123Z,98880
2022-10-09T06:07:53.240Z,98880
2022-10-09T06:19:53.277Z,98880
2022-10-09T06:31:53.172Z,98880
2022-10-09T06:43:53.282Z,98830
2022-10-09T06:55:53.684Z,98810
2022-10-09T07:07:53.224Z,98870
2022-10-09T07:19:53.164Z,98870
2022-10-09T07:31:53.242Z,98880
2022-10-09T07:43:53.279Z,98900
2022-10-09T07:55:53.168Z,98920
2022-10-09T08:07:53.167Z,98910
2022-10-09T08:19:53.278Z,98910
2022-10-09T08:31:53.199Z,98900
2022-10-09T08:43:53.158Z,98880
2022-10-09T08:55:53.229Z,98950
2022-10-09T09:07:53.285Z,98950
2022-10-09T09:19:53.164Z,98940
2022-10-09T09:31:53.171Z,98930
2022-10-09T09:43:53.252Z,98910
2022-10-09T09:55:53.280Z,98890
2022-10-09T10:07:53.267Z,98880
2022-10-09T10:19:53.247Z,98880
2022-10-09T10:31:53.251Z,98870
2022-10-09T10:43:53.276Z,98860
2022-10-09T10:55:53.388Z,98850
2022-10-09T11:07:56.575Z,98830
2022-10-09T11:19:53.282Z,98820
2022-10-09T11:31:53.377Z,98810
2022-10-09T11:43:53.242Z,98780
2022-10-09T11:55:53.262Z,98790
2022-10-09T12:07:53.164Z,98770
2022-10-09T12:19:54.513Z,98760
2022-10-09T12:31:53.239Z,98750
2022-10-09T12:43:53.160Z,98740
2022-10-09T12:55:53.158Z,98710
2022-10-09T13:07:53.176Z,98690
2022-10-09T13:19:53.162Z,98680
2022-10-09T13:31:53.232Z,98660
2022-10-09T13:43:53.279Z,98650
2022-10-09T13:55:55.948Z,98620
2022-10-09T14:07:53.493Z,98590
2022-10-09T14:19:53.164Z,98590
2022-10-09T14:31:53.282Z,98570
2022-10-09T14:43:53.275Z,98540
2022-10-09T14:55:53.218Z,98520
2022-10-09T15:07:53.171Z,98510
2022-10-09T15:19:53.161Z,98490
2022-10-09T15:31:53.253Z,98480
2022-10-09T15:43:53.157Z,98470
2022-10-09T15:55:53.160Z,98440
2022-10-09T16:07:53.285Z,98430
2022-10-09T16:19:53.222Z,98440
2022-10-09T16:31:53.260Z,98440
2022-10-09T16:43:53.255Z,98430
2022-10-09T16:55:53.283Z,98440
2022-10-09T17:07:53.297Z,98440
2022-10-09T17:19:53.257Z,98420
2022-10-09T17:31:53.287Z,98420
2022-10-09T17:43:53.263Z,98410
2022-10-09T17:55:53.166Z,98410
2022-10-09T18:07:53.323Z,98390
2022-10-09T18:19:53.280Z,98380
2022-10-09T18:31:53.273Z,98360
2022-10-09T18:43:53.224Z,98350
2022-10-09T18:55:53.280Z,98350
2022-10-09T19:07:53.218Z,98340
2022-10-09T19:19:53.241Z,98330
2022-10-09T19:31:53.259Z,98320
2022-10-09T19:43:53.223Z,98300
2022-10-09T19:55:53.294Z,98300
2022-10-09T20:07:53.168Z,98300
2022-10-09T20:19:53.258Z,98300
2022-10-09T20:31:53.288Z,98290
2022-10-09T20:43:53.255Z,98280
2022-10-09T20:55:53.227Z,98280
2022-10-09T21:07:53.261Z,98270
2022-10-09T21:19:53.277Z,98270
2022-10-09T21:31:53.168Z,98270
2022-10-09T21:43:53.232Z,98270
2022-10-09T21:55:53.269Z,98260
2022-10-09T22:07:53.282Z,98260
2022-10-09T22:19:54.072Z,98250
2022-10-09T22:31:53.240Z,98220
2022-10-09T22:43:53.164Z,98220
2022-10-09T22:55:53.159Z,98210
2022-10-09T23:07:53.179Z,98200
2022-10-09T23:19:53.158Z,98200
2022-10-09T23:31:53.288Z,98180
2022-10-09T23:43:53.255Z,98180
2022-10-09T23:55:53.277Z,98170
